Kalam Weather



Kalam's Current Weather

Temprature 29.6o few clouds

few clouds

Rain: 0 %

Min Temprature29.6o
Max Temprature29.6o
Humidity44
Wind Speed3.79 m/h
Sun Rise05:11:48
Sun Set19:20:12
Current Time: 24-Jul-2021 15:46:10
Lat/Lon: 35.4816, 72.5848




Kalam's Geo Location



Kalam's Weather Forecast

Time Overall Temp Min Temp Max Temp Humidity Wind Speed Rain
24-Jul-2021 (Sat)
17:00:00 light rain 28.460 28.460 28.460 50 3.51 m/h 14 %
20:00:00 light rain 26.340 22.090 26.340 62 1.52 m/h 22 %
23:00:00 clear sky 23.210 20.590 23.210 76 0.9 m/h 0 %
25-Jul-2021 (Sun)
02:00:00 clear sky 19.990 19.990 19.990 88 0.64 m/h 0 %
05:00:00 clear sky 19.580 19.580 19.580 80 0.64 m/h 0 %
08:00:00 overcast clouds 25.660 25.660 25.660 55 0.99 m/h 0 %
11:00:00 broken clouds 30.660 30.660 30.660 41 2.76 m/h 0 %
14:00:00 clear sky 32.390 32.390 32.390 41 3.57 m/h 0 %
17:00:00 clear sky 30.080 30.080 30.080 56 3.49 m/h 0 %
20:00:00 light rain 23.270 23.270 23.270 90 1.88 m/h 40 %
23:00:00 few clouds 21.670 21.670 21.670 95 1.46 m/h 0 %
26-Jul-2021 (Mon)
02:00:00 broken clouds 20.790 20.790 20.790 94 1.29 m/h 0 %
05:00:00 broken clouds 20.880 20.880 20.880 89 0.71 m/h 0 %
08:00:00 scattered clouds 25.870 25.870 25.870 67 1.7 m/h 0 %
11:00:00 few clouds 30.670 30.670 30.670 50 2.8 m/h 0 %
14:00:00 light rain 31.880 31.880 31.880 51 3.66 m/h 12 %
17:00:00 light rain 29.520 29.520 29.520 64 3.68 m/h 78 %
20:00:00 light rain 23.710 23.710 23.710 95 2.17 m/h 172 %
23:00:00 light rain 23.300 23.300 23.300 90 2.03 m/h 77 %
27-Jul-2021 (Tue)
02:00:00 light rain 23.270 23.270 23.270 89 1.64 m/h 36 %
05:00:00 overcast clouds 22.520 22.520 22.520 88 1.14 m/h 0 %
08:00:00 few clouds 25.450 25.450 25.450 74 1.46 m/h 0 %
11:00:00 light rain 30.550 30.550 30.550 52 2.87 m/h 29 %
14:00:00 light rain 31.510 31.510 31.510 52 3.44 m/h 45 %
17:00:00 moderate rain 26.860 26.860 26.860 75 3.08 m/h 502 %
20:00:00 moderate rain 23.750 23.750 23.750 89 2.19 m/h 600 %
23:00:00 moderate rain 21.860 21.860 21.860 94 1.93 m/h 334 %
28-Jul-2021 (Wed)
02:00:00 light rain 21.820 21.820 21.820 91 1.61 m/h 185 %
05:00:00 light rain 21.520 21.520 21.520 91 1.17 m/h 157 %
08:00:00 light rain 23.530 23.530 23.530 79 1.41 m/h 23 %
11:00:00 light rain 27.300 27.300 27.300 64 3.37 m/h 103 %
14:00:00 light rain 27.150 27.150 27.150 69 3.52 m/h 270 %
17:00:00 light rain 24.850 24.850 24.850 79 3.26 m/h 261 %
20:00:00 light rain 21.810 21.810 21.810 90 2.04 m/h 198 %
23:00:00 light rain 21.410 21.410 21.410 89 0.72 m/h 89 %
29-Jul-2021 (Thu)
02:00:00 light rain 21.260 21.260 21.260 89 1.44 m/h 18 %
05:00:00 light rain 20.730 20.730 20.730 91 0.61 m/h 14 %
08:00:00 light rain 22.290 22.290 22.290 83 1.91 m/h 40 %
11:00:00 light rain 26.490 26.490 26.490 64 2.62 m/h 84 %
14:00:00 light rain 27.100 27.100 27.100 64 3.29 m/h 226 %

Famous Cities (60)